Observations for PESCARA, Italy (LIBP)

LIBP 140950Z 25004KT 9999 SCT050 BKN090 13/09 Q1009 
LIBP 140850Z 25004KT 9999 FEW050 SCT090 12/08 Q1009 
LIBP 140750Z 24004KT 9999 FEW045 SCT090 10/08 Q1009 
LIBP 140650Z 22004KT 9999 FEW050 BKN080 09/07 Q1008 
LIBP 140550Z AUTO 22005KT 9999 FEW041/// BKN082/// OVC100/// 08/07 Q1008
LIBP 140550Z AUTO 22005KT 9999 FEW041 BKN082 OVC100 08/07 Q1008
LIBP 140450Z AUTO 21003KT 9999 FEW096/// BKN180/// 07/06 Q1008  
LIBP 140450Z AUTO 21003KT 9999 FEW096 BKN180 07/06 Q1008
LIBP 140350Z AUTO VRB01KT 9999 NCD 07/06 Q1007  
LIBP 140250Z AUTO 17002KT 9999 NCD 08/07 Q1007  
LIBP 140150Z AUTO 20003KT 170V230 9999 NCD 08/06 Q1007  
LIBP 140050Z AUTO 26005KT 220V280 9999 FEW240/// 10/07 Q1007
LIBP 140050Z AUTO 26005KT 220V280 9999 FEW240 10/07 Q1007
LIBP 132250Z AUTO 26005KT 9999 NCD 11/04 Q1006  
LIBP 132150Z 27003KT 220V330 CAVOK 13/03 Q1006  
LIBP 132050Z 20008KT CAVOK 13/03 Q1005  
LIBP 131950Z 21008KT 9999 FEW025 13/07 Q1005
LIBP 131850Z 22005KT 9999 FEW030 12/11 Q1005
LIBP 131750Z VRB01KT 9999 FEW035 SCT070 14/12 Q1004 
LIBP 131650Z VRB02KT 9999 FEW020 SCT080 14/12 Q1003 
LIBP 131550Z 06005KT 030V110 9999 SCT020 15/12 Q1002
LIBP 131450Z 10006KT 9999 FEW075 16/13 Q1001 RERA   
LIBP 131419Z 09005KT 9999 FEW075 16/13 Q1001 RERA
LIBP 131352Z 07006KT 9999 RA SCT030 16/13 Q1001
LIBP 131350Z 04004KT 9999 SCT030 16/12 Q1001
LIBP 131352Z 07006KT 9999 RA SCT030 16/13 Q1001
LIBP 131250Z 08007KT 9999 FEW030 16/12 Q1000
LIBP 131150Z 05010KT CAVOK 16/12 Q0999  
LIBP 131050Z 04007KT CAVOK 15/11 Q0998